ELLX/LUX METAR and TAF weather

Enter ICAO airport designator
Station Type Date Time Source
ELLX METAR 2019/02/23 22:50 UTC NOAA

ELLX 232250Z 05011KT CAVOK 04/M06 Q1036 NOSIG


Station Type Date Time Source
ELLX Decoded METAR 2019/02/23 22:50 UTC NOAA

Luxembourg / Luxembourg, Luxembourg (ELLX) 49-37N 006-13E 379M
Feb 23, 2019 - 05:50 PM EST / 2019.02.23 2250 UTC
Wind: from the NE (050 degrees) at 13 MPH (11 KT):0
Visibility: greater than 7 mile(s):0
Temperature: 39 F (4 C)
Dew Point: 21 F (-6 C)
Relative Humidity: 48%
Pressure (altimeter): 30.59 in. Hg (1036 hPa)
ob: ELLX 232250Z 05011KT CAVOK 04/M06 Q1036 NOSIG
cycle: 23

Station Type Date Time Source
ELLX TAF 2019/02/23 18:27 UTC NOAA

TAF ELLX 231700Z 2318/2424 03006KT CAVOK
TEMPO 2408/2417 07012KT


Example: see airport list